| time (UTC) | temp F | wind direction | speed MPH | gust MPH | rain 1hr in | rain 24hr in | rain mn in | humidity % | barometer mb |
| 20260906032007 | 71 | 297 | 0.0 | 0.0 | 0.00 | 0.53 | 0.53 | 98 | 1010.6 |
| 20260906030045 | 71 | 297 | 0.0 | 2.0 | 0.00 | 0.53 | 0.53 | 98 | 1010.5 |
| 20260906025550 | 71 | 297 | 0.0 | 2.0 | 0.00 | 0.53 | 0.53 | 98 | 1010.5 |
| 20260906025057 | 71 | 297 | 0.0 | 2.0 | 0.00 | 0.53 | 0.53 | 98 | 1010.5 |
| 20260906024607 | 71 | 297 | 0.0 | 1.0 | 0.00 | 0.53 | 0.53 | 97 | 1010.5 |
| 20260906024002 | 71 | 297 | 0.0 | 2.0 | 0.00 | 0.53 | 0.53 | 97 | 1010.3 |
| 20260906022501 | 71 | 297 | 0.0 | 0.0 | 0.00 | 0.53 | 0.53 | 97 | 1010.3 |
| 20260906021647 | 72 | 297 | 0.0 | 0.0 | 0.00 | 0.53 | 0.53 | 97 | 1010.5 |
| 20260906020017 | 72 | 297 | 0.0 | 1.0 | 0.00 | 0.53 | 0.53 | 97 | 1010.5 |
| 20260906014517 | 72 | 297 | 0.0 | 1.0 | 0.00 | 0.53 | 0.53 | 97 | 1010.2 |
| 20260906013006 | 72 | 277 | 0.0 | 0.0 | 0.00 | 0.53 | 0.53 | 97 | 1010.1 |
| 20260906004523 | 73 | 277 | 0.0 | 0.0 | 0.00 | 0.53 | 0.53 | 96 | 1009.5 |
| 20260906002015 | 73 | 277 | 0.0 | 0.0 | 0.00 | 0.53 | 0.53 | 95 | 1009.2 |
| 20260906000016 | 74 | 277 | 0.0 | 0.0 | 0.00 | 0.53 | 0.53 | 94 | 1009.1 |
| 20260905235017 | 75 | 277 | 0.0 | 0.0 | 0.00 | 0.53 | 0.53 | 93 | 1009.2 |
| 20260905234013 | 75 | 277 | 0.0 | 1.0 | 0.00 | 0.53 | 0.53 | 93 | 1009.2 |
| 20260905232506 | 76 | 277 | 0.0 | 1.0 | 0.00 | 0.53 | 0.53 | 91 | 1009.2 |
| 20260905231122 | 76 | 277 | 0.0 | 0.0 | 0.00 | 0.53 | 0.53 | 90 | 1009.1 |
| 20260905223141 | 80 | 236 | 0.0 | 3.0 | 0.00 | 0.53 | 0.53 | 83 | 1009.4 |
| 20260905222038 | 82 | 319 | 1.0 | 2.0 | 0.00 | 0.53 | 0.53 | 79 | 1009.4 |
| 20260905214007 | 85 | 171 | 2.0 | 7.0 | 0.00 | 0.53 | 0.53 | 69 | 1009.6 |
| 20260905213512 | 85 | 86 | 2.0 | 5.0 | 0.00 | 0.53 | 0.53 | 71 | 1009.5 |
| 20260905213013 | 85 | 183 | 0.0 | 3.0 | 0.00 | 0.53 | 0.53 | 72 | 1009.6 |
| 20260905212512 | 85 | 126 | 1.0 | 5.0 | 0.00 | 0.53 | 0.53 | 69 | 1009.7 |
| 20260905212012 | 85 | 186 | 2.0 | 5.0 | 0.00 | 0.53 | 0.53 | 71 | 1009.5 |
| 20260905205016 | 84 | 132 | 3.0 | 9.0 | 0.00 | 0.53 | 0.53 | 72 | 1009.6 |
| 20260905204524 | 84 | 360 | 1.0 | 4.0 | 0.00 | 0.53 | 0.53 | 71 | 1009.6 |
| 20260905203002 | 84 | 296 | 1.0 | 5.0 | 0.00 | 0.53 | 0.53 | 72 | 1009.7 |
| 20260905202515 | 83 | 40 | 1.0 | 4.0 | 0.00 | 0.53 | 0.53 | 71 | 1009.6 |
| 20260905195511 | 83 | 338 | 1.0 | 4.0 | 0.00 | 0.53 | 0.53 | 73 | 1010.0 |
| 20260905194505 | 83 | 207 | 1.0 | 7.0 | 0.00 | 0.53 | 0.53 | 73 | 1010.1 |
| 20260905194159 | 82 | 94 | 1.0 | 7.0 | 0.00 | 0.53 | 0.53 | 74 | 1010.1 |
| 20260905193004 | 82 | 105 | 2.0 | 4.0 | 0.00 | 0.53 | 0.53 | 73 | 1010.5 |
| 20260905192658 | 81 | 88 | 1.0 | 6.0 | 0.00 | 0.53 | 0.53 | 74 | 1010.5 |
| 20260905191519 | 82 | 228 | 1.0 | 5.0 | 0.00 | 0.53 | 0.53 | 74 | 1010.5 |
| 20260905190632 | 81 | 111 | 3.0 | 7.0 | 0.00 | 0.53 | 0.53 | 73 | 1010.6 |
| 20260905190004 | 81 | 205 | 0.0 | 4.0 | 0.00 | 0.53 | 0.53 | 76 | 1010.8 |
| 20260905185655 | 80 | 193 | 1.0 | 7.0 | 0.00 | 0.53 | 0.53 | 73 | 1010.9 |
| 20260905185002 | 81 | 133 | 3.0 | 7.0 | 0.00 | 0.53 | 0.53 | 72 | 1011.2 |
| 20260905184654 | 81 | 146 | 2.0 | 5.0 | 0.00 | 0.53 | 0.53 | 75 | 1011.2 |
| 20260905184002 | 80 | 88 | 2.0 | 4.0 | 0.00 | 0.53 | 0.53 | 77 | 1011.3 |
| 20260905183658 | 80 | 337 | 1.0 | 4.0 | 0.00 | 0.53 | 0.53 | 79 | 1011.3 |
| 20260905183008 | 80 | 329 | 2.0 | 4.0 | 0.00 | 0.53 | 0.53 | 78 | 1011.5 |
| 20260905182013 | 78 | 94 | 2.0 | 7.0 | 0.00 | 0.53 | 0.53 | 79 | 1011.8 |
| 20260905181014 | 78 | 11 | 0.0 | 3.0 | 0.00 | 0.53 | 0.53 | 83 | 1012.0 |
| 20260905180130 | 77 | 16 | 0.0 | 3.0 | 0.00 | 0.53 | 0.53 | 86 | 1012.3 |
| 20260905175510 | 76 | 242 | 0.0 | 3.0 | 0.00 | 0.53 | 0.53 | 85 | 1012.3 |
| 20260905174647 | 75 | 288 | 1.0 | 4.0 | 0.00 | 0.53 | 0.53 | 88 | 1012.5 |
| 20260905174133 | 74 | 248 | 0.0 | 4.0 | 0.00 | 0.53 | 0.53 | 90 | 1012.9 |
| 20260905173621 | 74 | 80 | 1.0 | 3.0 | 0.00 | 0.53 | 0.53 | 92 | 1012.9 |
| 20260905172651 | 73 | 169 | 1.0 | 5.0 | 0.00 | 0.53 | 0.53 | 95 | 1012.8 |
| 20260905172135 | 72 | 227 | 0.0 | 3.0 | 0.00 | 0.53 | 0.53 | 96 | 1013.0 |
| 20260905171515 | 71 | 163 | 1.0 | 3.0 | 0.00 | 0.53 | 0.53 | 96 | 1013.0 |
| 20260905170657 | 71 | 230 | 0.0 | 3.0 | 0.00 | 0.53 | 0.53 | 97 | 1012.7 |
| 20260905170126 | 71 | 319 | 1.0 | 3.0 | 0.01 | 0.53 | 0.53 | 97 | 1012.7 |
| 20260905165516 | 70 | 239 | 1.0 | 2.0 | 0.04 | 0.53 | 0.53 | 97 | 1012.5 |
| 20260905165010 | 70 | 289 | 0.0 | 3.0 | 0.15 | 0.53 | 0.53 | 97 | 1012.5 |
| 20260905164655 | 70 | 290 | 0.0 | 3.0 | 0.27 | 0.53 | 0.53 | 97 | 1012.5 |
| 20260905164153 | 70 | 306 | 1.0 | 3.0 | 0.44 | 0.53 | 0.53 | 97 | 1012.6 |
| 20260905163645 | 69 | 340 | 1.0 | 2.0 | 0.53 | 0.53 | 0.53 | 97 | 1012.8 |
| 20260905163143 | 69 | 122 | 0.0 | 2.0 | 0.53 | 0.53 | 0.53 | 96 | 1012.8 |
| 20260905162642 | 69 | 91 | 0.0 | 2.0 | 0.53 | 0.53 | 0.53 | 96 | 1013.1 |
| 20260905162135 | 69 | 238 | 0.0 | 2.0 | 0.53 | 0.53 | 0.53 | 96 | 1013.2 |
| 20260905161628 | 69 | 238 | 1.0 | 2.0 | 0.53 | 0.53 | 0.53 | 95 | 1013.2 |
| 20260905161124 | 69 | 336 | 0.0 | 4.0 | 0.53 | 0.53 | 0.53 | 95 | 1013.3 |
| 20260905160513 | 69 | 57 | 2.0 | 4.0 | 0.53 | 0.53 | 0.53 | 93 | 1013.3 |
| 20260905160121 | 69 | 42 | 1.0 | 7.0 | 0.52 | 0.52 | 0.52 | 93 | 1013.6 |
| 20260905155629 | 70 | 355 | 2.0 | 9.0 | 0.49 | 0.49 | 0.49 | 92 | 1014.1 |
| 20260905152521 | 83 | 242 | 1.0 | 4.0 | 0.00 | 0.00 | 0.00 | 78 | 1012.4 |
| 20260905151156 | 82 | 171 | 1.0 | 5.0 | 0.00 | 0.00 | 0.00 | 80 | 1012.0 |
| 20260905150011 | 81 | 169 | 3.0 | 7.0 | 0.00 | 0.00 | 0.00 | 80 | 1011.7 |
| 20260905144520 | 82 | 103 | 1.0 | 5.0 | 0.00 | 0.00 | 0.00 | 80 | 1011.8 |
| 20260905143507 | 81 | 180 | 0.0 | 3.0 | 0.00 | 0.00 | 0.00 | 83 | 1011.7 |
| 20260905143001 | 81 | 115 | 1.0 | 3.0 | 0.00 | 0.00 | 0.00 | 82 | 1011.8 |
| 20260905141009 | 80 | 111 | 1.0 | 3.0 | 0.00 | 0.00 | 0.00 | 82 | 1012.0 |
| 20260905135654 | 79 | 99 | 1.0 | 4.0 | 0.00 | 0.00 | 0.00 | 84 | 1012.0 |
| 20260905135008 | 79 | 98 | 0.0 | 3.0 | 0.00 | 0.00 | 0.00 | 83 | 1012.1 |
| 20260905134003 | 78 | 113 | 0.0 | 3.0 | 0.00 | 0.00 | 0.00 | 86 | 1012.1 |
| 20260905133552 | 77 | 84 | 0.0 | 3.0 | 0.00 | 0.00 | 0.00 | 85 | 1012.1 |
| 20260905133003 | 77 | 150 | 0.0 | 2.0 | 0.00 | 0.00 | 0.00 | 87 | 1012.1 |
| 20260905132653 | 77 | 211 | 0.0 | 2.0 | 0.00 | 0.00 | 0.00 | 88 | 1012.2 |
| 20260905132138 | 76 | 211 | 0.0 | 2.0 | 0.00 | 0.00 | 0.00 | 88 | 1012.2 |
| 20260905124003 | 72 | 313 | 0.0 | 2.0 | 0.00 | 0.00 | 0.00 | 97 | 1012.5 |
| 20260905123514 | 71 | 313 | 0.0 | 2.0 | 0.00 | 0.00 | 0.00 | 97 | 1012.5 |
| 20260905121501 | 69 | 312 | 0.0 | 2.0 | 0.00 | 0.00 | 0.00 | 98 | 1012.5 |
| 20260905121010 | 69 | 312 | 0.0 | 1.0 | 0.00 | 0.00 | 0.00 | 98 | 1012.4 |
| 20260905115512 | 68 | 312 | 0.0 | 0.0 | 0.00 | 0.00 | 0.00 | 98 | 1012.2 |
| 20260905115106 | 67 | 312 | 0.0 | 0.0 | 0.00 | 0.00 | 0.00 | 98 | 1012.1 |
| 20260905114030 | 67 | 312 | 0.0 | 2.0 | 0.00 | 0.00 | 0.00 | 99 | 1012.1 |
| 20260905113155 | 67 | 313 | 0.0 | 2.0 | 0.00 | 0.00 | 0.00 | 98 | 1012.1 |
| 20260905112637 | 67 | 312 | 0.0 | 0.0 | 0.00 | 0.00 | 0.00 | 98 | 1012.0 |
| 20260905112009 | 67 | 312 | 0.0 | 1.0 | 0.00 | 0.00 | 0.00 | 98 | 1012.0 |
| 20260905111136 | 67 | 312 | 0.0 | 2.0 | 0.00 | 0.00 | 0.00 | 98 | 1011.8 |
| 20260905110516 | 67 | 312 | 0.0 | 0.0 | 0.00 | 0.00 | 0.00 | 98 | 1011.8 |
| 20260905105646 | 67 | 313 | 0.0 | 1.0 | 0.00 | 0.00 | 0.00 | 98 | 1011.6 |
| 20260905105143 | 67 | 313 | 0.0 | 1.0 | 0.00 | 0.00 | 0.00 | 98 | 1011.6 |
| 20260905104154 | 67 | 312 | 0.0 | 1.0 | 0.00 | 0.00 | 0.00 | 98 | 1011.5 |
| 20260905103654 | 67 | 313 | 0.0 | 0.0 | 0.00 | 0.00 | 0.00 | 98 | 1011.5 |
| 20260905103112 | 67 | 312 | 0.0 | 1.0 | 0.00 | 0.00 | 0.00 | 98 | 1011.5 |
| 20260905102614 | 67 | 312 | 0.0 | 1.0 | 0.00 | 0.00 | 0.00 | 98 | 1011.6 |
| 20260905102117 | 67 | 312 | 0.0 | 2.0 | 0.00 | 0.00 | 0.00 | 98 | 1011.5 |
| 20260905101005 | 67 | 313 | 0.0 | 1.0 | 0.00 | 0.00 | 0.00 | 98 | 1011.4 |
| 20260905100512 | 67 | 313 | 0.0 | 0.0 | 0.00 | 0.00 | 0.00 | 98 | 1011.3 |
| 20260905095503 | 67 | 313 | 0.0 | 0.0 | 0.00 | 0.00 | 0.00 | 98 | 1011.3 |
| 20260905095055 | 67 | 313 | 0.0 | 0.0 | 0.00 | 0.00 | 0.00 | 98 | 1011.3 |
| 20260905094140 | 67 | 313 | 0.0 | 0.0 | 0.00 | 0.00 | 0.00 | 98 | 1011.3 |
| 20260905093509 | 68 | 313 | 0.0 | 0.0 | 0.00 | 0.00 | 0.00 | 98 | 1011.3 |
| 20260905093009 | 68 | 312 | 0.0 | 0.0 | 0.00 | 0.00 | 0.00 | 98 | 1011.3 |
| 20260905092526 | 68 | 313 | 0.0 | 1.0 | 0.00 | 0.00 | 0.00 | 98 | 1011.3 |
| 20260905092119 | 68 | 313 | 0.0 | 1.0 | 0.00 | 0.00 | 0.00 | 98 | 1011.2 |
| 20260905091137 | 68 | 312 | 0.0 | 0.0 | 0.00 | 0.00 | 0.00 | 98 | 1011.1 |
| 20260905090509 | 68 | 312 | 0.0 | 1.0 | 0.00 | 0.00 | 0.00 | 98 | 1011.1 |
| 20260905090016 | 68 | 313 | 0.0 | 1.0 | 0.00 | 0.00 | 0.00 | 98 | 1011.2 |
| 20260905085608 | 68 | 313 | 0.0 | 1.0 | 0.00 | 0.00 | 0.00 | 98 | 1011.1 |
| 20260905085125 | 68 | 313 | 0.0 | 1.0 | 0.00 | 0.00 | 0.00 | 98 | 1011.1 |
| 20260905084015 | 68 | 313 | 0.0 | 0.0 | 0.00 | 0.00 | 0.00 | 98 | 1011.0 |
| 20260905083606 | 68 | 313 | 0.0 | 0.0 | 0.00 | 0.00 | 0.00 | 98 | 1011.0 |
| 20260905083122 | 68 | 313 | 0.0 | 1.0 | 0.00 | 0.00 | 0.00 | 97 | 1011.1 |
| 20260905082504 | 68 | 313 | 0.0 | 1.0 | 0.00 | 0.00 | 0.00 | 98 | 1011.2 |
| 20260905082022 | 68 | 313 | 0.0 | 1.0 | 0.00 | 0.00 | 0.00 | 98 | 1011.1 |
| 20260905081132 | 69 | 313 | 0.0 | 2.0 | 0.00 | 0.00 | 0.00 | 98 | 1011.2 |
| 20260905080515 | 69 | 279 | 0.0 | 1.0 | 0.00 | 0.00 | 0.00 | 97 | 1011.3 |
| 20260905080109 | 69 | 279 | 0.0 | 3.0 | 0.00 | 0.00 | 0.00 | 97 | 1011.3 |